createdAt,value
2018-12-13T00:02:00.299Z,25.10
2018-12-13T00:04:29.110Z,29.70
2018-12-13T00:06:57.985Z,28.13
2018-12-13T00:09:26.799Z,28.77
2018-12-13T00:11:55.695Z,29.43
2018-12-13T00:14:24.472Z,26.47
2018-12-13T00:16:53.380Z,26.10
2018-12-13T00:19:22.180Z,29.27
2018-12-13T00:21:51.051Z,28.07
2018-12-13T00:24:20.643Z,31.60
2018-12-13T00:26:49.439Z,30.27
2018-12-13T00:29:18.242Z,34.73
2018-12-13T00:31:47.062Z,33.50
2018-12-13T00:34:18.008Z,27.57
2018-12-13T00:36:46.826Z,29.97
2018-12-13T00:39:15.642Z,29.90
2018-12-13T00:41:44.439Z,30.83
2018-12-13T00:44:18.130Z,31.03
2018-12-13T00:46:47.311Z,33.20
2018-12-13T00:49:16.126Z,37.37
2018-12-13T00:51:44.966Z,32.40
2018-12-13T00:54:13.810Z,35.30
2018-12-13T00:56:43.959Z,31.00
2018-12-13T00:59:12.767Z,32.53
2018-12-13T01:01:44.362Z,35.03
2018-12-13T01:04:13.157Z,30.80
2018-12-13T01:06:45.913Z,33.37
2018-12-13T01:09:13.255Z,35.37
2018-12-13T01:11:45.971Z,36.87
2018-12-13T01:14:14.764Z,30.57
2018-12-13T01:16:43.651Z,32.43
2018-12-13T01:19:14.552Z,30.47
2018-12-13T01:21:43.383Z,35.50
2018-12-13T01:24:11.975Z,34.40
2018-12-13T01:26:43.062Z,36.83
2018-12-13T01:29:12.447Z,34.00
2018-12-13T01:31:40.923Z,27.80
2018-12-13T01:34:09.394Z,31.73
2018-12-13T01:36:37.869Z,36.40
2018-12-13T01:39:06.365Z,34.50
2018-12-13T01:41:35.126Z,32.60
2018-12-13T01:44:03.702Z,28.13
2018-12-13T01:46:32.277Z,32.63
2018-12-13T01:49:00.786Z,31.57
2018-12-13T01:51:29.254Z,31.17
2018-12-13T01:53:57.766Z,34.90
2018-12-13T01:56:26.245Z,27.03
2018-12-13T01:58:54.715Z,25.27
2018-12-13T02:01:23.200Z,34.13
2018-12-13T02:03:51.702Z,31.23
2018-12-13T02:06:20.187Z,26.50
2018-12-13T02:08:48.650Z,25.60
2018-12-13T02:11:17.117Z,27.37
2018-12-13T02:13:45.999Z,28.87
2018-12-13T02:16:14.468Z,27.60
2018-12-13T02:18:43.025Z,25.70
2018-12-13T02:21:11.522Z,28.77
2018-12-13T02:23:40.029Z,26.57
2018-12-13T02:26:08.525Z,29.93
2018-12-13T02:28:37.363Z,29.40
2018-12-13T02:31:05.844Z,25.20
2018-12-13T02:33:34.315Z,29.37
2018-12-13T02:36:02.837Z,25.77
2018-12-13T02:38:31.306Z,27.40
2018-12-13T02:41:00.166Z,24.37
2018-12-13T02:43:28.642Z,26.80
2018-12-13T02:45:57.124Z,25.80
2018-12-13T02:48:25.616Z,25.80
2018-12-13T02:50:54.095Z,25.63
2018-12-13T02:53:22.569Z,27.03
2018-12-13T02:55:51.046Z,25.40
2018-12-13T02:58:19.545Z,26.20
2018-12-13T03:00:48.050Z,24.60
2018-12-13T03:03:16.763Z,23.20
2018-12-13T03:05:45.694Z,24.57
2018-12-13T03:08:14.269Z,24.43
2018-12-13T03:10:43.072Z,25.60
2018-12-13T03:13:11.539Z,29.30
2018-12-13T03:15:40.022Z,24.83
2018-12-13T03:18:08.829Z,20.63
2018-12-13T03:20:37.310Z,22.30
2018-12-13T03:23:05.894Z,22.10
2018-12-13T03:25:34.394Z,20.43
2018-12-13T03:28:02.882Z,19.77
2018-12-13T03:30:31.405Z,20.87
2018-12-13T03:32:59.911Z,20.47
2018-12-13T03:35:28.387Z,19.03
2018-12-13T03:37:56.882Z,21.80
2018-12-13T03:40:25.359Z,23.47
2018-12-13T03:42:53.857Z,26.77
2018-12-13T03:45:22.337Z,24.60
2018-12-13T03:47:50.834Z,19.57
2018-12-13T03:50:19.681Z,27.20
2018-12-13T03:52:48.154Z,21.57
2018-12-13T03:55:16.637Z,22.47
2018-12-13T03:57:45.148Z,24.97
2018-12-13T04:00:13.655Z,24.43
2018-12-13T04:02:42.129Z,23.93
2018-12-13T04:05:10.982Z,24.80
2018-12-13T04:07:39.455Z,23.23
2018-12-13T04:10:07.943Z,24.77
2018-12-13T04:12:36.453Z,26.23
2018-12-13T04:15:05.236Z,21.10
2018-12-13T04:17:33.740Z,24.50
2018-12-13T04:20:02.260Z,25.23
2018-12-13T04:22:30.735Z,28.93
2018-12-13T04:24:59.213Z,23.63
2018-12-13T04:27:27.703Z,24.00
2018-12-13T04:29:56.283Z,22.17
2018-12-13T04:32:24.782Z,25.30
2018-12-13T04:34:53.380Z,24.27
2018-12-13T04:37:21.986Z,23.10
2018-12-13T04:39:50.491Z,25.50
2018-12-13T04:42:18.984Z,22.40
2018-12-13T04:44:47.464Z,18.60
2018-12-13T04:47:15.957Z,16.50
2018-12-13T04:49:44.445Z,15.17
2018-12-13T04:52:12.956Z,16.70
2018-12-13T04:54:41.418Z,14.93
2018-12-13T04:57:09.905Z,17.10
2018-12-13T04:59:38.386Z,16.20
2018-12-13T05:02:06.857Z,17.00
2018-12-13T05:04:35.338Z,11.87
2018-12-13T05:07:04.156Z,14.57
2018-12-13T05:09:32.640Z,13.53
2018-12-13T05:12:01.109Z,16.47
2018-12-13T05:14:29.843Z,13.67
2018-12-13T05:16:58.719Z,13.20
2018-12-13T05:19:27.497Z,14.47
2018-12-13T05:21:56.333Z,18.47
2018-12-13T05:24:25.262Z,13.60
2018-12-13T05:26:53.831Z,11.23
2018-12-13T05:29:22.654Z,11.30
2018-12-13T05:31:51.463Z,10.67
2018-12-13T05:34:20.274Z,13.30
2018-12-13T05:36:49.122Z,13.17
2018-12-13T05:39:17.701Z,12.80
2018-12-13T05:41:46.457Z,14.50
2018-12-13T05:44:19.774Z,14.27
2018-12-13T05:46:48.826Z,9.63
2018-12-13T05:49:17.650Z,10.70
2018-12-13T05:51:46.625Z,11.57
2018-12-13T05:54:15.141Z,10.73
2018-12-13T05:56:43.644Z,12.20
2018-12-13T05:59:12.202Z,12.57
2018-12-13T06:01:40.706Z,14.27
2018-12-13T06:04:09.209Z,12.10
2018-12-13T06:06:37.673Z,12.60
2018-12-13T06:09:06.557Z,10.87
2018-12-13T06:11:35.074Z,10.80
2018-12-13T06:14:03.600Z,11.83
2018-12-13T06:16:32.677Z,12.97
2018-12-13T06:19:01.602Z,10.40
2018-12-13T06:21:36.643Z,10.03
2018-12-13T06:24:01.623Z,12.30
2018-12-13T06:26:30.201Z,11.17
2018-12-13T06:28:58.660Z,9.83
2018-12-13T06:31:27.161Z,11.03
2018-12-13T06:33:55.658Z,11.47
2018-12-13T06:36:24.254Z,17.70
2018-12-13T06:38:52.786Z,14.00
2018-12-13T06:41:21.293Z,13.10
2018-12-13T06:43:49.802Z,14.53
2018-12-13T06:46:18.334Z,18.83
2018-12-13T06:48:46.837Z,15.20
2018-12-13T06:51:15.341Z,17.03
2018-12-13T06:53:43.916Z,16.17
2018-12-13T06:56:12.447Z,15.57
2018-12-13T06:58:40.996Z,17.00
2018-12-13T07:01:09.549Z,14.40
2018-12-13T07:03:38.033Z,16.37
2018-12-13T07:06:06.543Z,13.90
2018-12-13T07:08:35.041Z,21.47
2018-12-13T07:11:03.624Z,15.90
2018-12-13T07:13:32.099Z,13.90
2018-12-13T07:16:00.582Z,13.40
2018-12-13T07:18:29.097Z,14.23
2018-12-13T07:20:57.670Z,13.47
2018-12-13T07:23:26.177Z,14.20
2018-12-13T07:25:54.669Z,13.10
2018-12-13T07:28:23.149Z,13.07
2018-12-13T07:30:51.712Z,11.27
2018-12-13T07:33:20.208Z,10.60
2018-12-13T07:35:48.712Z,10.73
2018-12-13T07:38:17.203Z,15.73
2018-12-13T07:40:45.723Z,9.50
2018-12-13T07:43:14.275Z,14.50
2018-12-13T07:45:43.087Z,10.97
2018-12-13T07:48:11.654Z,15.87
2018-12-13T07:50:40.154Z,19.87
2018-12-13T07:53:08.648Z,16.00
2018-12-13T07:55:37.126Z,15.37
2018-12-13T07:58:05.714Z,13.70
2018-12-13T08:00:34.230Z,15.33
2018-12-13T08:03:02.716Z,15.83
2018-12-13T08:05:31.327Z,12.20
2018-12-13T08:07:59.838Z,13.70
2018-12-13T08:10:28.455Z,12.87
2018-12-13T08:12:56.947Z,12.60
2018-12-13T08:15:25.462Z,11.93
2018-12-13T08:17:53.943Z,12.47
2018-12-13T08:20:22.440Z,10.77
2018-12-13T08:22:51.325Z,11.27
2018-12-13T08:25:19.824Z,13.90
2018-12-13T08:27:48.430Z,12.43
2018-12-13T08:30:17.037Z,11.13
2018-12-13T08:32:46.094Z,11.33
2018-12-13T08:37:30.310Z,13.97
2018-12-13T08:39:59.234Z,11.00
2018-12-13T08:42:27.739Z,9.17
2018-12-13T08:44:56.249Z,15.47
2018-12-13T08:47:24.753Z,14.23
2018-12-13T08:49:53.531Z,10.50
2018-12-13T08:52:22.101Z,12.63
2018-12-13T08:54:50.595Z,14.07
2018-12-13T08:57:19.077Z,15.73
2018-12-13T08:59:48.530Z,16.87
2018-12-13T09:02:17.108Z,13.70
2018-12-13T09:04:45.743Z,15.20
2018-12-13T09:07:14.346Z,13.80
2018-12-13T09:09:42.897Z,13.90
2018-12-13T09:12:11.781Z,12.50
2018-12-13T09:14:40.282Z,12.47
2018-12-13T09:17:08.833Z,13.43
2018-12-13T09:19:37.322Z,15.30
2018-12-13T09:22:05.837Z,17.83
2018-12-13T09:24:34.374Z,16.73
2018-12-13T09:27:02.902Z,14.57
2018-12-13T09:29:31.482Z,15.37
2018-12-13T09:31:59.973Z,13.50
2018-12-13T09:34:28.591Z,13.40
2018-12-13T09:36:57.110Z,14.73
2018-12-13T09:39:25.648Z,16.07
2018-12-13T09:41:54.177Z,14.77
2018-12-13T09:44:22.682Z,15.53
2018-12-13T09:46:51.206Z,15.20
2018-12-13T09:49:20.140Z,12.27
2018-12-13T09:51:48.658Z,13.80
2018-12-13T09:54:17.165Z,11.67
2018-12-13T09:56:45.644Z,13.80
2018-12-13T09:59:14.143Z,15.40
2018-12-13T10:01:42.628Z,12.30
2018-12-13T10:04:11.154Z,12.63
2018-12-13T10:06:40.767Z,12.77
2018-12-13T10:09:09.401Z,14.70
2018-12-13T10:11:37.891Z,11.33
2018-12-13T10:14:06.404Z,11.87
2018-12-13T10:16:34.930Z,11.63
2018-12-13T10:19:03.459Z,11.40
2018-12-13T10:21:32.245Z,11.30
2018-12-13T10:24:00.749Z,11.90
2018-12-13T10:26:29.233Z,15.63
2018-12-13T10:28:57.810Z,13.90
2018-12-13T10:31:26.350Z,12.97
2018-12-13T10:33:54.837Z,13.17
2018-12-13T10:36:23.561Z,16.70
2018-12-13T10:38:53.232Z,14.93
2018-12-13T10:41:22.055Z,19.40
2018-12-13T10:43:50.549Z,12.13
2018-12-13T10:46:19.197Z,14.43
2018-12-13T10:48:47.870Z,17.40
2018-12-13T10:51:16.390Z,12.80
2018-12-13T10:53:53.794Z,14.07
2018-12-13T10:56:38.057Z,13.27
2018-12-13T10:59:07.112Z,15.53
2018-12-13T11:01:40.765Z,12.67
2018-12-13T11:04:09.294Z,12.67
2018-12-13T11:06:40.087Z,11.37
2018-12-13T11:09:09.529Z,15.30
2018-12-13T11:11:38.175Z,13.43
2018-12-13T11:14:06.897Z,10.30
2018-12-13T11:16:36.575Z,12.23
2018-12-13T11:19:07.001Z,13.00
2018-12-13T11:21:35.573Z,12.80
2018-12-13T11:24:04.087Z,7.83
2018-12-13T11:26:32.629Z,9.43
2018-12-13T11:29:15.686Z,9.40
2018-12-13T11:31:45.752Z,8.90
2018-12-13T11:34:16.732Z,8.77
2018-12-13T11:36:45.976Z,7.33
2018-12-13T11:39:15.610Z,6.60
2018-12-13T11:41:45.113Z,8.90
2018-12-13T11:44:13.728Z,6.90
2018-12-13T11:46:42.476Z,9.50
2018-12-13T11:49:12.205Z,12.83
2018-12-13T11:51:41.175Z,9.87
2018-12-13T11:54:16.310Z,8.17
2018-12-13T11:56:45.436Z,13.43
2018-12-13T11:59:13.986Z,15.33
2018-12-13T12:01:42.487Z,9.10
2018-12-13T12:04:11.047Z,9.57
2018-12-13T12:06:39.584Z,12.30
2018-12-13T12:09:12.206Z,9.50
2018-12-13T12:11:38.739Z,8.57
2018-12-13T12:14:07.276Z,5.60
2018-12-13T12:16:35.859Z,9.37
2018-12-13T12:19:04.437Z,9.13
2018-12-13T12:21:32.989Z,9.70
2018-12-13T12:24:01.532Z,7.20
2018-12-13T12:26:30.062Z,8.93
2018-12-13T12:28:58.628Z,7.53
2018-12-13T12:31:27.153Z,7.53
2018-12-13T12:33:55.777Z,7.30
2018-12-13T12:36:24.285Z,7.40
2018-12-13T12:41:45.010Z,6.07
2018-12-13T12:44:13.614Z,6.20
2018-12-13T12:46:42.166Z,9.50
2018-12-13T12:49:10.657Z,5.40
2018-12-13T12:51:39.182Z,6.40
2018-12-13T12:54:07.778Z,6.33
2018-12-13T12:56:36.293Z,5.37
2018-12-13T12:59:04.769Z,9.43
2018-12-13T13:01:33.566Z,6.77
2018-12-13T13:04:02.100Z,4.83
2018-12-13T13:06:30.589Z,6.37
2018-12-13T13:08:59.094Z,6.43
2018-12-13T13:11:27.649Z,6.87
2018-12-13T13:13:56.172Z,6.10
2018-12-13T13:19:13.821Z,8.30
2018-12-13T13:21:42.309Z,6.87
2018-12-13T13:24:10.811Z,6.03
2018-12-13T13:26:39.369Z,7.80
2018-12-13T13:29:07.904Z,9.53
2018-12-13T13:31:36.934Z,6.90
2018-12-13T13:34:05.435Z,8.30
2018-12-13T13:36:33.955Z,6.33
2018-12-13T13:39:03.411Z,7.73
2018-12-13T13:41:31.885Z,6.07
2018-12-13T13:44:00.413Z,7.47
2018-12-13T13:46:29.001Z,6.97
2018-12-13T13:48:57.474Z,9.77
2018-12-13T13:51:26.088Z,6.10
2018-12-13T13:53:54.690Z,6.47
2018-12-13T13:56:23.291Z,8.50
2018-12-13T13:58:52.719Z,7.47
2018-12-13T14:01:21.265Z,8.43
2018-12-13T14:03:49.850Z,7.50
2018-12-13T14:06:18.349Z,6.47
2018-12-13T14:08:46.850Z,6.80
2018-12-13T14:11:15.383Z,7.07
2018-12-13T14:13:43.914Z,7.10
2018-12-13T14:16:12.418Z,7.73
2018-12-13T14:18:40.916Z,7.87
2018-12-13T14:21:09.437Z,7.50
2018-12-13T14:23:38.035Z,6.60
2018-12-13T14:26:07.362Z,11.70
2018-12-13T14:28:35.978Z,7.70
2018-12-13T14:31:04.477Z,5.30
2018-12-13T14:33:33.032Z,6.77
2018-12-13T14:36:01.716Z,8.57
2018-12-13T14:38:30.258Z,6.43
2018-12-13T14:40:58.736Z,7.70
2018-12-13T14:43:27.234Z,7.53
2018-12-13T14:45:55.741Z,9.10
2018-12-13T14:48:24.210Z,6.50
2018-12-13T14:50:52.722Z,4.60
2018-12-13T14:53:21.249Z,6.33
2018-12-13T14:55:49.754Z,6.43
2018-12-13T14:58:18.243Z,6.40
2018-12-13T15:00:46.826Z,5.60
2018-12-13T15:03:15.325Z,5.90
2018-12-13T15:05:43.859Z,7.30
2018-12-13T15:08:12.379Z,6.03
2018-12-13T15:10:40.936Z,6.47
2018-12-13T15:13:09.423Z,6.33
2018-12-13T15:15:37.956Z,6.77
2018-12-13T15:18:06.443Z,8.37
2018-12-13T15:20:34.945Z,7.20
2018-12-13T15:23:03.436Z,8.70
2018-12-13T15:25:32.036Z,8.47
2018-12-13T15:28:00.532Z,10.10
2018-12-13T15:30:29.041Z,7.90
2018-12-13T15:32:57.594Z,8.00
2018-12-13T15:35:26.149Z,9.70
2018-12-13T15:37:54.623Z,7.90
2018-12-13T15:40:23.165Z,9.73
2018-12-13T15:42:51.640Z,8.50
2018-12-13T15:45:20.581Z,11.30
2018-12-13T15:47:49.087Z,7.50
2018-12-13T15:50:17.601Z,9.67
2018-12-13T15:52:46.106Z,12.17
2018-12-13T15:55:14.740Z,9.57
2018-12-13T15:57:44.172Z,9.63
2018-12-13T16:00:12.962Z,7.90
2018-12-13T16:02:41.433Z,8.97
2018-12-13T16:05:09.920Z,8.37
2018-12-13T16:07:38.510Z,10.83
2018-12-13T16:10:07.153Z,7.93
2018-12-13T16:12:35.696Z,9.37
2018-12-13T16:15:04.424Z,9.93
2018-12-13T16:17:32.977Z,10.57
2018-12-13T16:20:01.566Z,9.80
2018-12-13T16:22:30.181Z,9.37
2018-12-13T16:24:58.730Z,9.87
2018-12-13T16:27:27.473Z,10.27
2018-12-13T16:29:56.114Z,12.13
2018-12-13T16:32:24.645Z,8.90
2018-12-13T16:34:53.142Z,9.60
2018-12-13T16:37:21.747Z,9.73
2018-12-13T16:39:50.249Z,12.00
2018-12-13T16:42:18.858Z,12.50
2018-12-13T16:44:47.350Z,10.87
2018-12-13T16:47:15.887Z,13.57
2018-12-13T16:49:44.410Z,15.07
2018-12-13T16:52:12.950Z,9.23
2018-12-13T16:54:41.565Z,11.13
2018-12-13T16:57:10.127Z,12.23
2018-12-13T16:59:38.646Z,9.17
2018-12-13T17:02:07.191Z,10.30
2018-12-13T17:04:35.710Z,11.03
2018-12-13T17:07:04.878Z,10.43
2018-12-13T17:09:33.346Z,8.30
2018-12-13T17:12:01.881Z,10.97
2018-12-13T17:14:30.435Z,17.60
2018-12-13T17:16:59.085Z,10.20
2018-12-13T17:19:27.605Z,12.67
2018-12-13T17:21:56.164Z,15.80
2018-12-13T17:24:24.760Z,10.80
2018-12-13T17:26:53.315Z,10.30
2018-12-13T17:29:21.821Z,15.73
2018-12-13T17:31:50.376Z,12.70
2018-12-13T17:34:18.887Z,13.80
2018-12-13T17:36:47.489Z,13.50
2018-12-13T17:39:16.018Z,12.90
2018-12-13T17:41:44.544Z,13.80
2018-12-13T17:44:13.061Z,12.53
2018-12-13T17:46:41.543Z,11.80
2018-12-13T17:49:10.067Z,15.70
2018-12-13T17:51:38.617Z,12.63
2018-12-13T17:54:07.123Z,12.83
2018-12-13T17:56:35.707Z,10.13
2018-12-13T17:59:04.338Z,11.23
2018-12-13T18:01:32.850Z,14.33
2018-12-13T18:04:01.371Z,13.10
2018-12-13T18:06:29.893Z,10.83
2018-12-13T18:08:58.426Z,13.10
2018-12-13T18:11:26.905Z,13.23
2018-12-13T18:13:55.473Z,13.20
2018-12-13T18:16:23.986Z,10.03
2018-12-13T18:18:52.680Z,13.73
2018-12-13T18:21:21.161Z,11.13
2018-12-13T18:23:49.752Z,10.43
2018-12-13T18:26:18.226Z,10.50
2018-12-13T18:28:46.735Z,15.83
2018-12-13T18:31:15.223Z,11.33
2018-12-13T18:33:43.750Z,16.60
2018-12-13T18:36:12.225Z,11.60
2018-12-13T18:38:41.485Z,11.40
2018-12-13T18:41:10.005Z,12.97
2018-12-13T18:43:38.533Z,12.93
2018-12-13T18:46:07.170Z,12.80
2018-12-13T18:48:35.711Z,12.63
2018-12-13T18:51:04.179Z,10.50
2018-12-13T18:53:32.985Z,15.10
2018-12-13T18:56:01.486Z,13.97
2018-12-13T18:58:29.966Z,13.00
2018-12-13T19:00:58.543Z,13.27
2018-12-13T19:03:27.046Z,14.60
2018-12-13T19:05:55.525Z,15.03
2018-12-13T19:08:24.273Z,14.00
2018-12-13T19:10:52.854Z,14.80
2018-12-13T19:13:22.241Z,12.37
2018-12-13T19:15:51.357Z,11.97
2018-12-13T19:18:19.861Z,15.83
2018-12-13T19:20:48.331Z,14.30
2018-12-13T19:23:17.634Z,15.90
2018-12-13T19:25:46.191Z,13.33
2018-12-13T19:28:14.675Z,15.37
2018-12-13T19:30:43.174Z,14.00
2018-12-13T19:33:11.746Z,17.63
2018-12-13T19:35:40.214Z,15.17
2018-12-13T19:38:08.729Z,14.57
2018-12-13T19:40:37.243Z,15.00
2018-12-13T19:43:05.754Z,12.30
2018-12-13T19:45:34.285Z,15.90
2018-12-13T19:48:02.802Z,16.00
2018-12-13T19:50:31.382Z,16.13
2018-12-13T19:52:59.902Z,16.53
2018-12-13T19:55:28.375Z,15.70
2018-12-13T19:57:56.918Z,14.37
2018-12-13T20:00:25.412Z,14.40
2018-12-13T20:02:53.929Z,19.33
2018-12-13T20:05:22.419Z,17.90
2018-12-13T20:07:50.976Z,17.47
2018-12-13T20:10:19.438Z,11.87
2018-12-13T20:12:47.962Z,17.50
2018-12-13T20:15:16.490Z,19.50
2018-12-13T20:17:44.991Z,17.40
2018-12-13T20:20:13.510Z,16.90
2018-12-13T20:22:42.045Z,12.60
2018-12-13T20:25:10.647Z,14.93
2018-12-13T20:27:40.317Z,12.67
2018-12-13T20:30:09.016Z,20.33
2018-12-13T20:32:37.505Z,16.50
2018-12-13T20:35:06.353Z,17.90
2018-12-13T20:37:34.889Z,16.13
2018-12-13T20:40:03.533Z,17.43
2018-12-13T20:42:32.123Z,14.30
2018-12-13T20:45:00.646Z,18.80
2018-12-13T20:47:29.117Z,15.47
2018-12-13T20:49:57.677Z,16.17
2018-12-13T20:52:26.145Z,17.73
2018-12-13T20:54:54.666Z,15.97
2018-12-13T20:57:23.173Z,16.73
2018-12-13T20:59:51.694Z,16.00
2018-12-13T21:02:20.159Z,18.80
2018-12-13T21:04:48.819Z,17.80
2018-12-13T21:07:22.720Z,16.53
2018-12-13T21:09:51.341Z,15.07
2018-12-13T21:12:19.847Z,14.03
2018-12-13T21:14:48.382Z,16.13
2018-12-13T21:17:16.882Z,17.30
2018-12-13T21:19:45.420Z,14.50
2018-12-13T21:22:13.896Z,14.77
2018-12-13T21:24:42.533Z,19.83
2018-12-13T21:27:11.020Z,13.13
2018-12-13T21:29:39.525Z,13.37
2018-12-13T21:32:07.995Z,16.63
2018-12-13T21:34:36.506Z,14.43
2018-12-13T21:37:05.083Z,14.37
2018-12-13T21:39:33.597Z,13.83
2018-12-13T21:42:02.096Z,18.27
2018-12-13T21:44:30.617Z,16.27
2018-12-13T21:46:59.096Z,14.93
2018-12-13T21:49:27.603Z,14.70
2018-12-13T21:51:56.085Z,12.87
2018-12-13T21:54:24.613Z,17.03
2018-12-13T21:56:53.194Z,14.43
2018-12-13T21:59:21.698Z,14.17
2018-12-13T22:01:50.191Z,13.77
2018-12-13T22:04:18.780Z,12.97
2018-12-13T22:06:47.262Z,15.57
2018-12-13T22:09:15.750Z,15.13
2018-12-13T22:11:45.050Z,14.80
2018-12-13T22:14:13.530Z,11.80
2018-12-13T22:16:42.069Z,15.73
2018-12-13T22:19:10.571Z,14.17
2018-12-13T22:21:39.120Z,15.57
2018-12-13T22:24:07.609Z,15.10
2018-12-13T22:26:36.383Z,15.67
2018-12-13T22:29:05.801Z,12.20
2018-12-13T22:31:34.305Z,15.40
2018-12-13T22:34:02.798Z,15.90
2018-12-13T22:36:31.353Z,17.17
2018-12-13T22:38:59.842Z,13.60
2018-12-13T22:41:28.328Z,15.70
2018-12-13T22:43:56.833Z,18.13
2018-12-13T22:46:25.301Z,12.27
2018-12-13T22:48:53.793Z,17.30
2018-12-13T22:51:22.281Z,15.43
2018-12-13T22:53:50.771Z,13.53
2018-12-13T22:56:19.229Z,15.57
2018-12-13T22:58:47.717Z,16.03
2018-12-13T23:01:16.271Z,13.80
2018-12-13T23:03:44.752Z,17.33
2018-12-13T23:06:14.229Z,18.87
2018-12-13T23:08:42.722Z,14.67
2018-12-13T23:11:11.472Z,14.10
2018-12-13T23:13:39.976Z,16.07
2018-12-13T23:16:08.473Z,16.63
2018-12-13T23:18:36.957Z,17.53
2018-12-13T23:21:05.486Z,17.53
2018-12-13T23:23:34.002Z,19.30
2018-12-13T23:26:02.524Z,19.10
2018-12-13T23:28:30.975Z,17.57
2018-12-13T23:30:59.473Z,14.83
2018-12-13T23:33:27.955Z,19.70
2018-12-13T23:35:56.525Z,19.60
2018-12-13T23:38:25.019Z,17.73
2018-12-13T23:40:53.509Z,15.80
2018-12-13T23:43:22.009Z,16.70
2018-12-13T23:45:50.510Z,17.00
2018-12-13T23:48:19.418Z,21.43
2018-12-13T23:50:47.918Z,18.80
2018-12-13T23:53:16.416Z,22.50
2018-12-13T23:55:44.893Z,22.20
2018-12-13T23:58:13.369Z,26.87
